Time;durP1;ratioP1;P1;durP2;ratioP2;P2;SDS_P1;SDS_P2;PMS_P1;PMS_P2;Temp;Humidity;BMP_temperature;BMP_pressure;BME280_temperature;BME280_humidity;BME280_pressure;Samples;Min_cycle;Max_cycle;Signal;HPM_P1;HPM_P2
2024/03/09 00:00:58;;;;;;;63.03;34.08;;;;;;;;;;4926514;29;20110;-92
2024/03/09 00:03:26;;;;;;;69.88;34.88;;;;;;;;;;4915892;29;20112;-94
2024/03/09 00:05:52;;;;;;;64.88;33.83;;;;;;;;;;4904385;29;20044;-94
2024/03/09 00:08:19;;;;;;;66.90;34.70;;;;;;;;;;4905379;29;20039;-92
2024/03/09 00:10:49;;;;;;;65.95;33.50;;;;;;;;;;4916397;29;20030;-93
2024/03/09 00:13:15;;;;;;;65.38;33.50;;;;;;;;;;4940634;29;20438;-92
2024/03/09 00:15:45;;;;;;;73.63;37.20;;;;;;;;;;4941763;29;20055;-95
2024/03/09 00:18:11;;;;;;;68.78;35.22;;;;;;;;;;4939714;29;20027;-91
2024/03/09 00:20:42;;;;;;;71.05;35.55;;;;;;;;;;4938559;29;20481;-95
2024/03/09 00:23:13;;;;;;;72.95;34.30;;;;;;;;;;4937291;29;20064;-92
2024/03/09 00:25:40;;;;;;;72.75;35.47;;;;;;;;;;4940168;29;20027;-95
2024/03/09 00:28:12;;;;;;;78.22;37.50;;;;;;;;;;4924417;29;20073;-94
2024/03/09 00:30:41;;;;;;;70.90;34.90;;;;;;;;;;4924307;29;20493;-94
2024/03/09 00:33:10;;;;;;;71.10;36.90;;;;;;;;;;4924836;29;20036;-94
2024/03/09 00:35:42;;;;;;;70.20;39.35;;;;;;;;;;4928814;29;20032;-94
2024/03/09 00:38:08;;;;;;;73.07;38.88;;;;;;;;;;4924292;29;20032;-94
2024/03/09 00:40:38;;;;;;;76.05;37.80;;;;;;;;;;4923629;29;20474;-92
2024/03/09 00:43:04;;;;;;;72.07;36.80;;;;;;;;;;4925437;29;20044;-95
2024/03/09 00:45:30;;;;;;;78.97;40.28;;;;;;;;;;4929499;29;20036;-95
2024/03/09 00:48:00;;;;;;;79.15;39.45;;;;;;;;;;4942265;29;20039;-93
2024/03/09 00:50:26;;;;;;;81.65;41.53;;;;;;;;;;4913448;29;20104;-94
2024/03/09 00:52:53;;;;;;;85.90;39.63;;;;;;;;;;4912878;29;20028;-93
2024/03/09 00:58:32;;;;;;;69.18;35.75;;;;;;;;;;4960322;28;20047;-93
2024/03/09 01:01:05;;;;;;;72.13;36.45;;;;;;;;;;4931708;29;20373;-94
2024/03/09 01:03:47;;;;;;;78.63;32.72;;;;;;;;;;4925862;29;20044;-94
2024/03/09 01:06:20;;;;;;;68.68;32.30;;;;;;;;;;4940091;29;20024;-95
2024/03/09 01:08:49;;;;;;;82.72;32.03;;;;;;;;;;4939918;29;20027;-94
2024/03/09 01:11:17;;;;;;;68.57;31.65;;;;;;;;;;4923292;29;20040;-95
2024/03/09 01:13:46;;;;;;;74.10;32.15;;;;;;;;;;4931584;29;20040;-92
2024/03/09 01:16:13;;;;;;;80.88;32.97;;;;;;;;;;4939305;29;20040;-95
2024/03/09 01:18:48;;;;;;;86.43;34.08;;;;;;;;;;4922484;29;20028;-91
2024/03/09 01:21:14;;;;;;;75.55;33.05;;;;;;;;;;4922795;29;20051;-93
2024/03/09 01:23:41;;;;;;;75.18;32.40;;;;;;;;;;4926611;29;20036;-93
2024/03/09 01:26:11;;;;;;;84.68;32.58;;;;;;;;;;4926874;29;20398;-95
2024/03/09 01:28:41;;;;;;;72.68;31.73;;;;;;;;;;4927449;29;20027;-92
2024/03/09 01:31:12;;;;;;;73.85;32.15;;;;;;;;;;4927560;29;20054;-94
2024/03/09 01:33:45;;;;;;;79.28;31.48;;;;;;;;;;4941559;29;20048;-95
2024/03/09 01:36:12;;;;;;;70.50;31.95;;;;;;;;;;4918276;29;20039;-92
2024/03/09 01:38:40;;;;;;;70.57;31.13;;;;;;;;;;4943485;29;20032;-95
2024/03/09 01:41:09;;;;;;;67.32;31.30;;;;;;;;;;4941677;29;20059;-94
2024/03/09 01:43:35;;;;;;;70.95;31.45;;;;;;;;;;4932035;29;20115;-91
2024/03/09 01:46:05;;;;;;;81.28;32.75;;;;;;;;;;4927464;29;20023;-94
2024/03/09 01:48:34;;;;;;;69.30;30.88;;;;;;;;;;4928156;29;20039;-91
2024/03/09 01:51:04;;;;;;;66.50;30.50;;;;;;;;;;4926733;29;20042;-94
2024/03/09 01:53:31;;;;;;;73.65;30.88;;;;;;;;;;4926998;29;20110;-93
2024/03/09 01:56:22;;;;;;;73.28;30.77;;;;;;;;;;4926936;29;20129;-94
2024/03/09 01:58:51;;;;;;;69.82;29.52;;;;;;;;;;4912493;29;20043;-92
2024/03/09 02:01:30;;;;;;;63.08;28.20;;;;;;;;;;4924296;29;20032;-94
2024/03/09 02:04:00;;;;;;;68.80;30.80;;;;;;;;;;4927032;29;20047;-94
2024/03/09 02:06:36;;;;;;;62.85;29.65;;;;;;;;;;4927553;29;20377;-95
2024/03/09 02:09:25;;;;;;;59.65;28.17;;;;;;;;;;4946451;29;20028;-94
2024/03/09 02:11:48;;;;;;;62.38;29.25;;;;;;;;;;4945194;29;20541;-96
2024/03/09 02:14:18;;;;;;;62.05;28.17;;;;;;;;;;4927682;29;20036;-92
2024/03/09 02:16:49;;;;;;;58.92;28.35;;;;;;;;;;4927960;29;20036;-94
2024/03/09 02:19:20;;;;;;;59.58;28.98;;;;;;;;;;4928566;29;20032;-93
2024/03/09 02:21:47;;;;;;;63.65;27.17;;;;;;;;;;4925413;29;20043;-94
2024/03/09 02:24:18;;;;;;;63.85;28.63;;;;;;;;;;4925842;29;20064;-93
2024/03/09 02:26:45;;;;;;;63.15;30.88;;;;;;;;;;4943885;29;20011;-94
2024/03/09 02:29:15;;;;;;;67.57;29.45;;;;;;;;;;4946901;29;20047;-93
2024/03/09 02:32:01;;;;;;;54.85;26.02;;;;;;;;;;4938300;29;20532;-92
2024/03/09 02:34:28;;;;;;;55.83;28.20;;;;;;;;;;4928378;29;20061;-93
2024/03/09 02:36:58;;;;;;;61.72;28.50;;;;;;;;;;4937734;29;20131;-95
2024/03/09 02:39:27;;;;;;;60.25;27.98;;;;;;;;;;4927771;29;20103;-93
2024/03/09 02:41:58;;;;;;;62.50;27.70;;;;;;;;;;4940270;29;20019;-95
2024/03/09 02:44:27;;;;;;;65.70;28.15;;;;;;;;;;4940119;29;20078;-95
2024/03/09 02:46:56;;;;;;;61.50;26.48;;;;;;;;;;4941758;29;20393;-93
2024/03/09 02:49:24;;;;;;;61.83;27.98;;;;;;;;;;4941325;29;20043;-92
2024/03/09 02:51:53;;;;;;;57.05;26.85;;;;;;;;;;4940447;29;20036;-92
2024/03/09 02:54:27;;;;;;;55.45;26.98;;;;;;;;;;4926646;29;20051;-95
2024/03/09 02:56:53;;;;;;;55.42;26.17;;;;;;;;;;4939879;29;20056;-91
2024/03/09 02:59:19;;;;;;;59.38;27.17;;;;;;;;;;4927054;29;20063;-92
2024/03/09 03:01:47;;;;;;;63.58;27.05;;;;;;;;;;4929576;29;20035;-91
2024/03/09 03:04:13;;;;;;;52.13;25.90;;;;;;;;;;4942916;29;20056;-94
2024/03/09 03:06:47;;;;;;;56.83;26.15;;;;;;;;;;4942897;29;20152;-93
2024/03/09 03:09:19;;;;;;;57.72;25.85;;;;;;;;;;4944154;29;20035;-94
2024/03/09 03:11:46;;;;;;;55.85;25.42;;;;;;;;;;4925534;29;20034;-93
2024/03/09 03:14:12;;;;;;;52.83;25.05;;;;;;;;;;4941193;29;20179;-95
2024/03/09 03:16:38;;;;;;;51.80;24.92;;;;;;;;;;4925968;29;20032;-92
2024/03/09 03:19:12;;;;;;;54.10;27.95;;;;;;;;;;4938070;29;20072;-94
2024/03/09 03:21:41;;;;;;;58.88;27.30;;;;;;;;;;4926318;29;20366;-91
2024/03/09 03:24:13;;;;;;;54.92;25.77;;;;;;;;;;4944180;29;20070;-93
2024/03/09 03:26:46;;;;;;;52.17;25.38;;;;;;;;;;4944029;29;20094;-93
2024/03/09 03:29:17;;;;;;;51.65;25.58;;;;;;;;;;4946293;29;20032;-91
2024/03/09 03:31:47;;;;;;;53.33;26.08;;;;;;;;;;4942973;29;20023;-95
2024/03/09 03:34:15;;;;;;;57.95;25.52;;;;;;;;;;4941858;29;20134;-95
2024/03/09 03:36:45;;;;;;;57.95;25.83;;;;;;;;;;4926813;29;20126;-94
2024/03/09 03:39:12;;;;;;;55.55;26.65;;;;;;;;;;4926117;29;20035;-95
2024/03/09 03:41:42;;;;;;;64.00;27.23;;;;;;;;;;4929305;29;20051;-95
2024/03/09 03:44:15;;;;;;;63.20;27.52;;;;;;;;;;4938503;29;20044;-95
2024/03/09 03:46:50;;;;;;;61.00;28.15;;;;;;;;;;4940943;29;20034;-92
2024/03/09 03:49:35;;;;;;;59.78;26.42;;;;;;;;;;4927987;29;20032;-93
2024/03/09 03:52:04;;;;;;;54.15;25.27;;;;;;;;;;4938052;29;20035;-91
2024/03/09 03:54:31;;;;;;;59.08;27.27;;;;;;;;;;4928240;29;20056;-91
2024/03/09 03:56:58;;;;;;;57.35;27.45;;;;;;;;;;4943454;29;20035;-91
2024/03/09 03:59:24;;;;;;;55.63;26.10;;;;;;;;;;4939927;28;20059;-92
2024/03/09 04:01:51;;;;;;;55.35;25.38;;;;;;;;;;4959466;29;20052;-93
2024/03/09 04:04:24;;;;;;;55.10;24.98;;;;;;;;;;4950528;29;20059;-93
2024/03/09 04:06:50;;;;;;;58.53;26.67;;;;;;;;;;4927416;29;20039;-93
2024/03/09 04:09:23;;;;;;;55.08;24.60;;;;;;;;;;4934775;29;20024;-92
2024/03/09 04:11:50;;;;;;;56.80;23.77;;;;;;;;;;4922642;29;20039;-92
2024/03/09 04:14:17;;;;;;;56.75;24.85;;;;;;;;;;4911729;29;20486;-94
2024/03/09 04:16:49;;;;;;;56.53;25.88;;;;;;;;;;4907602;29;20024;-95
2024/03/09 04:19:15;;;;;;;51.55;23.90;;;;;;;;;;4906110;29;20102;-91
2024/03/09 04:21:42;;;;;;;54.33;26.23;;;;;;;;;;4925085;29;20024;-91
2024/03/09 04:24:17;;;;;;;51.40;24.45;;;;;;;;;;4924223;29;20508;-95
2024/03/09 04:26:44;;;;;;;51.40;24.00;;;;;;;;;;4926219;29;20028;-92
2024/03/09 04:29:10;;;;;;;61.72;26.35;;;;;;;;;;4924223;29;20405;-92
2024/03/09 04:31:37;;;;;;;51.17;24.73;;;;;;;;;;4926340;29;20024;-91
2024/03/09 04:34:11;;;;;;;55.50;25.45;;;;;;;;;;4926126;29;20098;-94
2024/03/09 04:36:37;;;;;;;51.38;23.05;;;;;;;;;;4924975;29;20031;-91
2024/03/09 04:39:09;;;;;;;55.20;22.90;;;;;;;;;;4924292;29;20486;-94
2024/03/09 04:41:35;;;;;;;51.58;24.50;;;;;;;;;;4920501;29;20083;-94
2024/03/09 04:44:03;;;;;;;51.00;24.40;;;;;;;;;;4919747;29;20126;-93
2024/03/09 04:46:30;;;;;;;53.67;26.55;;;;;;;;;;4920298;29;20035;-94
2024/03/09 04:48:59;;;;;;;49.83;23.55;;;;;;;;;;4920879;29;20050;-92
2024/03/09 04:51:26;;;;;;;46.63;22.55;;;;;;;;;;4919773;29;20026;-92
2024/03/09 04:53:52;;;;;;;51.10;23.70;;;;;;;;;;4920222;29;20035;-94
2024/03/09 04:56:24;;;;;;;56.95;25.35;;;;;;;;;;4942153;29;20027;-95
2024/03/09 04:58:50;;;;;;;50.17;23.05;;;;;;;;;;4939909;29;20036;-95
2024/03/09 05:01:40;;;;;;;49.60;23.50;;;;;;;;;;4940643;29;20118;-95
2024/03/09 05:04:09;;;;;;;51.05;25.35;;;;;;;;;;4933800;29;20052;-93
2024/03/09 05:06:39;;;;;;;50.45;24.25;;;;;;;;;;4926495;29;20028;-92
2024/03/09 05:09:06;;;;;;;51.80;26.52;;;;;;;;;;4940164;29;20031;-94
2024/03/09 05:11:36;;;;;;;49.80;22.52;;;;;;;;;;4932673;29;20044;-91
2024/03/09 05:14:03;;;;;;;55.22;24.52;;;;;;;;;;4927281;29;20115;-93
2024/03/09 05:16:35;;;;;;;54.25;24.58;;;;;;;;;;4922221;29;20081;-91
2024/03/09 05:19:08;;;;;;;52.95;23.85;;;;;;;;;;4938983;29;20071;-93
2024/03/09 05:21:38;;;;;;;46.60;23.95;;;;;;;;;;4932412;29;20036;-94
2024/03/09 05:24:08;;;;;;;52.75;23.58;;;;;;;;;;4923918;29;20036;-94
2024/03/09 05:26:34;;;;;;;52.22;28.08;;;;;;;;;;4924252;29;20063;-93
2024/03/09 05:29:00;;;;;;;49.30;25.85;;;;;;;;;;4927037;29;20106;-94
2024/03/09 05:31:29;;;;;;;48.88;23.73;;;;;;;;;;4924687;29;20040;-93
2024/03/09 05:33:55;;;;;;;49.80;26.23;;;;;;;;;;4928115;29;20032;-93
2024/03/09 05:36:21;;;;;;;54.95;25.05;;;;;;;;;;4927752;29;20115;-91
2024/03/09 05:38:50;;;;;;;51.40;27.27;;;;;;;;;;4941144;29;20090;-93
2024/03/09 05:41:17;;;;;;;57.35;25.85;;;;;;;;;;4926759;29;20087;-92
2024/03/09 05:43:47;;;;;;;55.65;24.50;;;;;;;;;;4924797;29;20114;-94
2024/03/09 05:46:14;;;;;;;56.33;25.58;;;;;;;;;;4922753;29;20038;-91
2024/03/09 05:48:40;;;;;;;56.28;25.27;;;;;;;;;;4940065;29;20038;-94
2024/03/09 05:51:09;;;;;;;51.45;24.23;;;;;;;;;;4944677;29;20040;-94
2024/03/09 05:53:36;;;;;;;50.08;24.13;;;;;;;;;;4938856;29;20060;-93
2024/03/09 05:56:03;;;;;;;62.45;28.00;;;;;;;;;;4927229;29;20028;-94
2024/03/09 05:58:30;;;;;;;53.20;24.70;;;;;;;;;;4924154;29;20076;-94
2024/03/09 06:00:56;;;;;;;57.25;24.98;;;;;;;;;;4941129;29;20020;-94
2024/03/09 06:03:23;;;;;;;54.65;24.75;;;;;;;;;;4941288;29;20071;-92
2024/03/09 06:05:49;;;;;;;55.80;26.08;;;;;;;;;;4940524;29;20031;-93
2024/03/09 06:08:16;;;;;;;60.65;27.60;;;;;;;;;;4942921;29;20079;-94
2024/03/09 06:10:42;;;;;;;62.78;27.83;;;;;;;;;;4926011;29;20070;-91
2024/03/09 06:13:11;;;;;;;64.43;29.70;;;;;;;;;;4930396;29;20031;-94
2024/03/09 06:15:39;;;;;;;59.17;25.88;;;;;;;;;;4927493;29;20032;-91
2024/03/09 06:18:05;;;;;;;59.55;26.42;;;;;;;;;;4930079;29;20062;-93
2024/03/09 06:20:34;;;;;;;65.60;28.20;;;;;;;;;;4943455;29;20110;-95
2024/03/09 06:23:02;;;;;;;61.08;27.98;;;;;;;;;;4926757;29;20035;-94
2024/03/09 06:25:29;;;;;;;67.38;28.50;;;;;;;;;;4927029;29;20027;-95
2024/03/09 06:27:56;;;;;;;64.85;28.40;;;;;;;;;;4943879;29;20032;-93
2024/03/09 06:30:23;;;;;;;66.25;27.60;;;;;;;;;;4943304;29;20027;-94
2024/03/09 06:33:28;;;;;;;66.57;28.05;;;;;;;;;;4944296;29;20115;-91
2024/03/09 06:36:04;;;;;;;;;;;;;;;;;;4948243;29;20066;-93
2024/03/09 06:38:37;;;;;;;68.88;28.25;;;;;;;;;;4946023;29;19961;-93
2024/03/09 06:41:03;;;;;;;83.20;32.73;;;;;;;;;;4941395;29;20036;-93
2024/03/09 06:43:31;;;;;;;77.85;31.00;;;;;;;;;;4931588;29;20271;-92
2024/03/09 06:45:59;;;;;;;72.63;30.33;;;;;;;;;;4926624;29;20481;-92
2024/03/09 06:48:27;;;;;;;86.30;34.40;;;;;;;;;;4930342;29;20032;-91
2024/03/09 06:50:54;;;;;;;77.57;30.85;;;;;;;;;;4928228;29;20054;-94
2024/03/09 06:53:24;;;;;;;75.53;32.63;;;;;;;;;;4927788;29;20063;-90
2024/03/09 06:55:50;;;;;;;81.50;31.35;;;;;;;;;;4947596;29;20055;-93
2024/03/09 06:58:17;;;;;;;81.03;30.25;;;;;;;;;;4926789;29;20031;-91
2024/03/09 07:00:43;;;;;;;70.45;30.83;;;;;;;;;;4932601;29;20031;-93
2024/03/09 07:03:10;;;;;;;69.95;29.02;;;;;;;;;;4927925;29;20063;-91
2024/03/09 07:05:36;;;;;;;63.92;27.85;;;;;;;;;;4944846;29;20024;-95
2024/03/09 07:08:05;;;;;;;70.18;30.80;;;;;;;;;;4948655;29;20044;-93
2024/03/09 07:10:35;;;;;;;68.05;30.30;;;;;;;;;;4954345;29;20103;-92
2024/03/09 07:13:02;;;;;;;75.22;31.42;;;;;;;;;;4929751;29;20036;-93
2024/03/09 07:15:30;;;;;;;68.38;31.52;;;;;;;;;;4927145;29;20043;-91
2024/03/09 07:17:56;;;;;;;80.72;34.80;;;;;;;;;;4941562;29;20095;-93
2024/03/09 07:20:23;;;;;;;75.32;32.20;;;;;;;;;;4937303;29;20040;-91
2024/03/09 07:22:51;;;;;;;78.93;32.30;;;;;;;;;;4944865;29;20042;-93
2024/03/09 07:25:23;;;;;;;73.15;31.88;;;;;;;;;;4928269;29;20031;-92
2024/03/09 07:27:54;;;;;;;75.43;31.73;;;;;;;;;;4935525;29;20086;-93
2024/03/09 07:30:22;;;;;;;86.45;36.33;;;;;;;;;;4943600;29;20118;-91
2024/03/09 07:32:53;;;;;;;74.72;31.17;;;;;;;;;;4959276;29;20030;-93
2024/03/09 07:35:19;;;;;;;75.93;33.40;;;;;;;;;;4938048;29;20137;-93
2024/03/09 07:37:59;;;;;;;68.57;30.60;;;;;;;;;;4927406;29;20111;-93
2024/03/09 07:40:25;;;;;;;75.00;32.53;;;;;;;;;;4927527;29;20052;-93
2024/03/09 07:42:55;;;;;;;68.63;31.40;;;;;;;;;;4928013;29;20532;-93
2024/03/09 07:45:29;;;;;;;68.20;31.88;;;;;;;;;;4927492;29;20071;-94
2024/03/09 07:47:58;;;;;;;73.25;31.95;;;;;;;;;;4927178;29;20051;-94
2024/03/09 07:50:27;;;;;;;73.65;32.20;;;;;;;;;;4925826;29;20031;-91
2024/03/09 07:52:58;;;;;;;67.00;30.48;;;;;;;;;;4944604;29;20087;-92
2024/03/09 07:55:25;;;;;;;62.10;30.23;;;;;;;;;;4909871;29;20138;-92
2024/03/09 07:57:52;;;;;;;66.90;30.42;;;;;;;;;;4940962;29;20020;-93
2024/03/09 08:00:21;;;;;;;65.88;31.20;;;;;;;;;;4940841;29;20058;-93
2024/03/09 08:02:48;;;;;;;63.72;30.85;;;;;;;;;;4928036;29;20039;-91
2024/03/09 08:05:15;;;;;;;63.90;31.98;;;;;;;;;;4941162;29;20114;-94
2024/03/09 08:07:44;;;;;;;68.47;31.02;;;;;;;;;;4940026;29;20032;-91
2024/03/09 08:10:19;;;;;;;64.05;30.75;;;;;;;;;;4939209;29;20040;-93
2024/03/09 08:12:45;;;;;;;66.72;30.98;;;;;;;;;;4925506;29;20058;-93
2024/03/09 08:15:12;;;;;;;68.85;30.83;;;;;;;;;;4940146;29;20087;-94
2024/03/09 08:17:47;;;;;;;67.18;30.08;;;;;;;;;;4924129;29;20465;-93
2024/03/09 08:20:14;;;;;;;61.97;29.80;;;;;;;;;;4937899;29;20047;-93
2024/03/09 08:22:45;;;;;;;67.10;31.45;;;;;;;;;;4925418;29;20039;-94
2024/03/09 08:25:17;;;;;;;67.43;30.73;;;;;;;;;;4927422;29;20039;-91
2024/03/09 08:27:44;;;;;;;68.15;29.88;;;;;;;;;;4927894;29;20043;-94
2024/03/09 08:30:15;;;;;;;62.83;30.00;;;;;;;;;;4934235;29;20028;-91
2024/03/09 08:32:44;;;;;;;66.72;29.98;;;;;;;;;;4912453;29;20448;-92
2024/03/09 08:35:16;;;;;;;70.95;31.65;;;;;;;;;;4945376;29;20040;-95
2024/03/09 08:37:44;;;;;;;61.67;31.10;;;;;;;;;;4930196;29;20122;-92
2024/03/09 08:40:18;;;;;;;64.20;30.10;;;;;;;;;;4957771;29;20032;-91
2024/03/09 08:42:52;;;;;;;76.07;35.80;;;;;;;;;;4942863;29;20059;-93
2024/03/09 08:45:22;;;;;;;70.47;36.97;;;;;;;;;;4928772;29;20064;-91
2024/03/09 08:47:50;;;;;;;65.60;33.80;;;;;;;;;;4926723;29;20032;-93
2024/03/09 08:50:17;;;;;;;68.78;31.60;;;;;;;;;;4938266;29;20023;-92
2024/03/09 08:52:52;;;;;;;62.88;32.58;;;;;;;;;;4907771;29;20039;-93
2024/03/09 08:55:19;;;;;;;61.15;30.55;;;;;;;;;;4940408;29;20035;-93
2024/03/09 08:57:46;;;;;;;67.07;31.73;;;;;;;;;;4940040;29;20508;-93
2024/03/09 09:00:13;;;;;;;60.30;33.50;;;;;;;;;;4937794;29;20059;-91
2024/03/09 09:02:40;;;;;;;63.63;33.35;;;;;;;;;;4922811;29;20050;-94
2024/03/09 09:05:14;;;;;;;70.05;35.33;;;;;;;;;;4923380;29;20036;-90
2024/03/09 09:07:40;;;;;;;;;;;;;;;;;;4924438;29;20051;-94
2024/03/09 09:10:12;;;;;;;70.57;35.70;;;;;;;;;;4925833;29;19907;-93
2024/03/09 09:12:44;;;;;;;68.93;36.35;;;;;;;;;;4937879;28;20016;-93
2024/03/09 09:15:11;;;;;;;64.75;35.40;;;;;;;;;;4938772;29;20623;-93
2024/03/09 09:17:40;;;;;;;64.53;36.03;;;;;;;;;;4923773;29;20036;-92
2024/03/09 09:20:11;;;;;;;63.03;35.80;;;;;;;;;;4906895;29;20047;-93
2024/03/09 09:22:40;;;;;;;67.20;37.00;;;;;;;;;;4924070;29;20024;-91
2024/03/09 09:25:09;;;;;;;62.60;34.55;;;;;;;;;;4922438;29;20028;-94
2024/03/09 09:27:36;;;;;;;64.97;38.15;;;;;;;;;;4922868;29;20401;-90
2024/03/09 09:30:04;;;;;;;67.90;41.05;;;;;;;;;;4940319;29;20032;-94
2024/03/09 09:32:31;;;;;;;65.50;37.75;;;;;;;;;;4925358;29;20504;-92
2024/03/09 09:34:57;;;;;;;62.28;38.67;;;;;;;;;;4924371;29;20502;-94
2024/03/09 09:37:24;;;;;;;65.68;41.22;;;;;;;;;;4924601;29;20051;-93
2024/03/09 09:39:51;;;;;;;66.05;41.28;;;;;;;;;;4926950;29;20036;-91
2024/03/09 09:42:21;;;;;;;60.28;42.45;;;;;;;;;;4923156;29;20051;-93
2024/03/09 09:44:48;;;;;;;61.95;39.60;;;;;;;;;;4928726;29;20028;-91
2024/03/09 09:47:23;;;;;;;58.20;35.50;;;;;;;;;;4945674;29;20401;-94
2024/03/09 09:49:49;;;;;;;63.72;37.47;;;;;;;;;;4925862;29;20036;-93
2024/03/09 09:52:16;;;;;;;65.32;39.00;;;;;;;;;;4927240;29;20130;-94
2024/03/09 09:54:43;;;;;;;55.13;33.90;;;;;;;;;;4929969;29;20039;-92
2024/03/09 09:57:11;;;;;;;52.65;32.45;;;;;;;;;;4942576;29;20549;-93
2024/03/09 09:59:37;;;;;;;58.67;35.53;;;;;;;;;;4922676;29;20210;-91
2024/03/09 10:02:03;;;;;;;51.45;32.92;;;;;;;;;;4928188;29;20028;-93
2024/03/09 10:04:30;;;;;;;47.83;30.05;;;;;;;;;;4928664;29;20055;-93
2024/03/09 10:07:07;;;;;;;49.83;30.27;;;;;;;;;;4946763;29;20034;-95
2024/03/09 10:09:35;;;;;;;50.45;30.25;;;;;;;;;;4934691;29;20055;-92
2024/03/09 10:12:01;;;;;;;64.57;37.95;;;;;;;;;;4947227;29;20083;-93
2024/03/09 10:14:31;;;;;;;58.40;35.08;;;;;;;;;;4959461;29;20108;-92
2024/03/09 10:17:19;;;;;;;56.58;31.33;;;;;;;;;;4943958;29;20362;-94
2024/03/09 10:19:47;;;;;;;49.35;28.52;;;;;;;;;;4928639;29;20024;-95
2024/03/09 10:22:13;;;;;;;48.17;29.92;;;;;;;;;;4930722;29;20083;-94
2024/03/09 10:24:57;;;;;;;48.40;27.90;;;;;;;;;;4928972;29;20049;-92
2024/03/09 10:27:26;;;;;;;44.25;26.83;;;;;;;;;;4928307;29;20036;-94
2024/03/09 10:30:06;;;;;;;44.33;25.65;;;;;;;;;;4929705;29;20028;-92
2024/03/09 10:32:32;;;;;;;43.30;25.13;;;;;;;;;;4948350;29;20032;-94
2024/03/09 10:35:00;;;;;;;47.88;27.42;;;;;;;;;;4946356;29;20107;-95
2024/03/09 10:37:27;;;;;;;40.47;25.75;;;;;;;;;;4940593;29;20366;-93
2024/03/09 10:39:54;;;;;;;40.08;25.67;;;;;;;;;;4945511;29;20036;-93
2024/03/09 10:42:22;;;;;;;38.97;24.33;;;;;;;;;;4946299;29;20032;-94
2024/03/09 10:44:49;;;;;;;41.35;23.80;;;;;;;;;;4930877;29;20109;-91
2024/03/09 10:47:16;;;;;;;36.03;23.10;;;;;;;;;;4930923;29;20040;-94
2024/03/09 10:49:47;;;;;;;36.10;23.20;;;;;;;;;;4929051;29;20047;-91
2024/03/09 10:52:15;;;;;;;38.20;25.25;;;;;;;;;;4944369;29;20083;-93
2024/03/09 10:54:46;;;;;;;38.30;24.40;;;;;;;;;;4936744;29;20040;-92
2024/03/09 10:57:18;;;;;;;45.35;28.50;;;;;;;;;;4929072;29;20035;-95
2024/03/09 10:59:45;;;;;;;42.22;24.15;;;;;;;;;;4925870;29;20032;-94
2024/03/09 11:02:17;;;;;;;40.28;26.95;;;;;;;;;;4927252;29;20044;-93
2024/03/09 11:04:49;;;;;;;36.42;23.42;;;;;;;;;;4925956;29;20047;-94
2024/03/09 11:07:16;;;;;;;37.88;23.80;;;;;;;;;;4926030;29;20063;-92
2024/03/09 11:09:45;;;;;;;43.85;26.75;;;;;;;;;;4943266;29;20055;-95
2024/03/09 11:12:11;;;;;;;49.15;30.77;;;;;;;;;;4926621;29;20063;-92
2024/03/09 11:14:58;;;;;;;43.22;27.65;;;;;;;;;;4942454;29;20091;-94
2024/03/09 11:17:34;;;;;;;38.30;24.98;;;;;;;;;;4944020;29;20031;-92
2024/03/09 11:20:00;;;;;;;41.65;25.48;;;;;;;;;;4925967;29;20039;-93
2024/03/09 11:22:43;;;;;;;37.30;24.95;;;;;;;;;;4928921;29;20039;-93
2024/03/09 11:25:11;;;;;;;40.75;26.75;;;;;;;;;;4930487;29;20047;-94
2024/03/09 11:27:41;;;;;;;40.25;27.42;;;;;;;;;;4928661;29;20091;-92
2024/03/09 11:30:08;;;;;;;40.03;26.08;;;;;;;;;;4926707;29;20477;-94
2024/03/09 11:32:40;;;;;;;40.90;26.77;;;;;;;;;;4925398;29;20042;-92
2024/03/09 11:35:47;;;;;;;35.72;25.70;;;;;;;;;;4911388;29;20078;-95
2024/03/09 11:38:18;;;;;;;37.70;26.88;;;;;;;;;;4890026;29;20024;-92
2024/03/09 11:40:46;;;;;;;40.30;27.77;;;;;;;;;;4888344;29;20037;-95
2024/03/09 11:43:14;;;;;;;33.53;26.73;;;;;;;;;;4907063;29;20024;-90
2024/03/09 11:45:40;;;;;;;37.90;27.80;;;;;;;;;;4947696;29;20030;-92
2024/03/09 11:48:08;;;;;;;37.05;28.85;;;;;;;;;;4934960;29;20087;-94
2024/03/09 11:50:40;;;;;;;37.50;29.80;;;;;;;;;;4926882;29;20063;-93
2024/03/09 11:53:14;;;;;;;38.83;29.40;;;;;;;;;;4926531;29;20489;-94
2024/03/09 11:55:41;;;;;;;40.42;30.77;;;;;;;;;;4942705;29;20497;-94
2024/03/09 11:58:07;;;;;;;42.83;31.60;;;;;;;;;;4942448;29;20024;-93
2024/03/09 12:00:35;;;;;;;45.53;27.85;;;;;;;;;;4940722;29;20561;-93
2024/03/09 12:03:13;;;;;;;39.20;28.33;;;;;;;;;;4925819;29;20062;-94
2024/03/09 12:05:40;;;;;;;39.70;28.45;;;;;;;;;;4925719;29;20440;-92
2024/03/09 12:08:09;;;;;;;38.92;29.48;;;;;;;;;;4926289;29;20034;-93
2024/03/09 12:10:36;;;;;;;41.60;30.70;;;;;;;;;;4941312;29;20118;-94
2024/03/09 12:13:07;;;;;;;38.90;28.67;;;;;;;;;;4940316;29;20034;-92
2024/03/09 12:15:34;;;;;;;36.83;28.35;;;;;;;;;;4924313;29;20059;-91
2024/03/09 12:18:03;;;;;;;39.25;28.40;;;;;;;;;;4929676;29;20038;-93
2024/03/09 12:20:29;;;;;;;34.70;27.80;;;;;;;;;;4935028;29;20035;-94
2024/03/09 12:22:55;;;;;;;35.58;27.25;;;;;;;;;;4925311;29;20101;-92
2024/03/09 12:25:23;;;;;;;36.60;29.20;;;;;;;;;;4942161;29;20091;-94
2024/03/09 12:27:50;;;;;;;28.90;23.80;;;;;;;;;;4951086;29;20069;-91
2024/03/09 12:30:18;;;;;;;30.85;25.27;;;;;;;;;;4942506;29;20035;-93
2024/03/09 12:32:44;;;;;;;33.72;25.70;;;;;;;;;;4934590;29;20019;-94
2024/03/09 12:35:13;;;;;;;33.67;26.85;;;;;;;;;;4942595;29;20057;-92
2024/03/09 12:37:39;;;;;;;28.13;21.13;;;;;;;;;;4926912;29;20118;-94
2024/03/09 12:40:18;;;;;;;31.63;26.65;;;;;;;;;;4928553;29;20054;-92
2024/03/09 12:42:45;;;;;;;25.88;22.55;;;;;;;;;;4927684;29;20504;-91
2024/03/09 12:45:26;;;;;;;31.48;27.73;;;;;;;;;;4925707;29;20042;-93
2024/03/09 12:47:55;;;;;;;32.67;29.25;;;;;;;;;;4926616;29;20519;-92
2024/03/09 12:50:22;;;;;;;31.42;28.17;;;;;;;;;;4943047;29;20106;-91
2024/03/09 12:52:55;;;;;;;29.15;25.00;;;;;;;;;;4941450;28;20051;-92
2024/03/09 12:55:25;;;;;;;28.17;23.08;;;;;;;;;;4930295;29;20051;-93
2024/03/09 12:57:52;;;;;;;32.60;24.75;;;;;;;;;;4925988;29;20031;-93
2024/03/09 13:00:20;;;;;;;29.45;23.10;;;;;;;;;;4924816;29;20032;-92
2024/03/09 13:02:55;;;;;;;29.02;24.77;;;;;;;;;;4923778;29;20036;-93
2024/03/09 13:05:21;;;;;;;32.03;24.88;;;;;;;;;;4923148;29;20035;-92
2024/03/09 13:07:51;;;;;;;28.63;24.63;;;;;;;;;;4924859;29;20031;-94
2024/03/09 13:10:40;;;;;;;28.83;24.10;;;;;;;;;;4931579;29;20019;-91
2024/03/09 13:13:06;;;;;;;24.75;18.17;;;;;;;;;;4933128;29;20021;-92
2024/03/09 13:15:37;;;;;;;30.63;20.33;;;;;;;;;;4947880;29;20020;-92
2024/03/09 13:18:05;;;;;;;23.42;19.10;;;;;;;;;;4951477;29;20032;-93
2024/03/09 13:20:32;;;;;;;28.10;23.42;;;;;;;;;;4933168;29;20646;-93
2024/03/09 13:23:03;;;;;;;25.25;21.23;;;;;;;;;;4937417;29;20071;-93
2024/03/09 13:25:31;;;;;;;27.75;21.80;;;;;;;;;;4918780;29;20040;-93
2024/03/09 13:28:06;;;;;;;24.83;22.15;;;;;;;;;;4928613;29;20027;-95
2024/03/09 13:30:35;;;;;;;29.92;23.73;;;;;;;;;;4943642;29;20095;-94
2024/03/09 13:33:03;;;;;;;28.13;19.63;;;;;;;;;;4943788;29;20028;-93
2024/03/09 13:35:30;;;;;;;28.73;20.92;;;;;;;;;;4927617;29;20142;-93
2024/03/09 13:37:56;;;;;;;29.88;23.80;;;;;;;;;;4944000;29;20024;-95
2024/03/09 13:40:26;;;;;;;30.70;21.38;;;;;;;;;;4945576;29;20043;-93
2024/03/09 13:42:55;;;;;;;27.75;20.45;;;;;;;;;;4943626;29;20580;-94
2024/03/09 13:45:24;;;;;;;29.98;21.38;;;;;;;;;;4943940;29;20067;-92
2024/03/09 13:48:11;;;;;;;30.40;22.30;;;;;;;;;;4929225;29;20031;-94
2024/03/09 13:50:37;;;;;;;30.70;21.30;;;;;;;;;;4928885;29;20082;-92
2024/03/09 13:53:06;;;;;;;28.13;21.75;;;;;;;;;;4928687;29;20577;-93
2024/03/09 13:55:33;;;;;;;27.30;19.42;;;;;;;;;;4929274;29;20037;-92
2024/03/09 13:58:02;;;;;;;28.77;22.05;;;;;;;;;;4927064;29;20028;-94
2024/03/09 14:00:29;;;;;;;30.85;21.85;;;;;;;;;;4942891;29;20079;-93
2024/03/09 14:02:57;;;;;;;27.92;21.85;;;;;;;;;;4942148;29;20055;-93
2024/03/09 14:05:26;;;;;;;29.02;21.88;;;;;;;;;;4933794;29;20027;-94
2024/03/09 14:08:00;;;;;;;29.30;22.30;;;;;;;;;;4944447;29;20038;-93
2024/03/09 14:10:31;;;;;;;;;;;;;;;;;;4931617;29;20107;-93
2024/03/09 14:12:57;;;;;;;26.25;18.75;;;;;;;;;;4925881;29;19911;-92
2024/03/09 14:15:25;;;;;;;29.38;21.30;;;;;;;;;;4941984;29;20083;-91
2024/03/09 14:17:53;;;;;;;29.33;21.67;;;;;;;;;;4939180;29;20126;-94
2024/03/09 14:20:22;;;;;;;25.52;19.85;;;;;;;;;;4925560;29;20036;-92
2024/03/09 14:22:52;;;;;;;27.77;21.25;;;;;;;;;;4943857;29;20575;-93
2024/03/09 14:25:28;;;;;;;30.27;22.08;;;;;;;;;;4942270;29;20395;-91
2024/03/09 14:28:16;;;;;;;29.58;22.02;;;;;;;;;;4946898;29;20040;-93
2024/03/09 14:30:42;;;;;;;30.83;21.77;;;;;;;;;;4936307;29;20027;-94
2024/03/09 14:33:12;;;;;;;32.40;21.85;;;;;;;;;;4941009;29;20028;-93
2024/03/09 14:35:40;;;;;;;29.90;23.38;;;;;;;;;;4945699;29;20126;-93